createdAt,value
2022-07-27T00:00:51.631Z,0.40
2022-07-27T00:05:53.961Z,0.98
2022-07-27T00:10:56.213Z,0.63
2022-07-27T00:15:58.595Z,0.55
2022-07-27T00:21:01.000Z,0.68
2022-07-27T00:26:03.335Z,0.60
2022-07-27T00:31:06.051Z,0.60
2022-07-27T00:36:08.688Z,0.50
2022-07-27T00:41:11.244Z,0.40
2022-07-27T00:46:13.512Z,0.70
2022-07-27T00:51:17.127Z,0.65
2022-07-27T00:56:19.458Z,0.67
2022-07-27T01:01:21.789Z,0.43
2022-07-27T01:06:27.332Z,0.40
2022-07-27T01:11:29.712Z,0.70
2022-07-27T01:16:32.173Z,0.70
2022-07-27T01:21:35.407Z,0.55
2022-07-27T01:26:38.514Z,0.55
2022-07-27T01:31:40.943Z,0.47
2022-07-27T01:36:43.574Z,0.50
2022-07-27T01:41:46.655Z,0.38
2022-07-27T01:46:49.355Z,0.50
2022-07-27T01:51:51.694Z,0.52
2022-07-27T01:56:53.894Z,0.80
2022-07-27T02:01:56.176Z,0.50
2022-07-27T02:06:58.434Z,0.50
2022-07-27T02:12:19.295Z,0.70
2022-07-27T02:17:21.535Z,1.30
2022-07-27T02:22:23.734Z,1.10
2022-07-27T02:27:26.042Z,0.50
2022-07-27T02:32:28.431Z,0.60
2022-07-27T02:37:30.910Z,0.67
2022-07-27T02:42:33.223Z,0.87
2022-07-27T02:47:35.809Z,0.57
2022-07-27T02:52:38.055Z,1.20
2022-07-27T02:57:41.301Z,1.00
2022-07-27T03:02:49.127Z,0.90
2022-07-27T03:07:51.357Z,0.60
2022-07-27T03:12:53.802Z,0.87
2022-07-27T03:17:56.864Z,0.67
2022-07-27T03:22:59.102Z,0.97
2022-07-27T03:28:04.189Z,1.03
2022-07-27T03:33:06.870Z,1.23
2022-07-27T03:38:09.122Z,1.10
2022-07-27T03:43:13.781Z,1.67
2022-07-27T03:48:16.043Z,0.90
2022-07-27T03:53:18.973Z,1.40
2022-07-27T03:58:23.224Z,1.07
2022-07-27T04:03:25.537Z,1.70
2022-07-27T04:08:27.813Z,1.08
2022-07-27T04:13:30.020Z,0.90
2022-07-27T04:18:32.403Z,1.73
2022-07-27T04:23:38.157Z,2.08
2022-07-27T04:28:40.629Z,1.70
2022-07-27T04:33:43.069Z,1.37
2022-07-27T04:38:45.521Z,1.60
2022-07-27T04:43:47.831Z,1.30
2022-07-27T04:48:51.023Z,1.03
2022-07-27T04:53:58.598Z,1.38
2022-07-27T04:59:01.270Z,0.98
2022-07-27T05:04:05.144Z,1.23
2022-07-27T05:09:07.599Z,1.47
2022-07-27T05:14:09.997Z,1.37
2022-07-27T05:19:12.562Z,1.20
2022-07-27T05:24:15.156Z,1.00
2022-07-27T05:29:19.578Z,0.90
2022-07-27T05:34:21.874Z,1.33
2022-07-27T05:39:24.367Z,0.90
2022-07-27T05:44:26.582Z,1.00
2022-07-27T05:49:28.901Z,1.37
2022-07-27T05:54:31.345Z,0.90
2022-07-27T05:59:34.044Z,1.10
2022-07-27T06:04:36.589Z,0.80
2022-07-27T06:09:38.821Z,0.83
2022-07-27T06:14:41.109Z,0.90
2022-07-27T06:19:43.445Z,1.00
2022-07-27T06:24:45.680Z,1.00
2022-07-27T06:29:47.950Z,0.50
2022-07-27T06:34:50.219Z,0.50
2022-07-27T06:39:53.186Z,0.83
2022-07-27T06:44:55.506Z,0.80
2022-07-27T06:49:58.337Z,0.60
2022-07-27T06:55:00.968Z,0.50
2022-07-27T07:00:04.386Z,0.50
2022-07-27T07:05:06.982Z,0.57
2022-07-27T07:10:09.567Z,0.63
2022-07-27T07:15:13.273Z,0.30
2022-07-27T07:20:16.370Z,0.40
2022-07-27T07:25:18.755Z,0.70
2022-07-27T07:30:21.701Z,0.30
2022-07-27T07:35:24.404Z,0.30
2022-07-27T07:40:44.417Z,0.32
2022-07-27T07:45:51.149Z,0.25
2022-07-27T07:50:54.334Z,0.30
2022-07-27T07:55:57.003Z,0.40
2022-07-27T08:01:04.815Z,0.20
2022-07-27T08:06:08.221Z,0.20
2022-07-27T08:11:10.669Z,0.13
2022-07-27T08:16:13.504Z,0.17
2022-07-27T08:21:15.978Z,0.20
2022-07-27T08:26:18.281Z,0.20
2022-07-27T08:31:26.455Z,0.20
2022-07-27T08:36:42.932Z,0.30
2022-07-27T08:41:45.326Z,0.10
2022-07-27T08:46:47.823Z,0.25
2022-07-27T08:51:50.517Z,0.30
2022-07-27T08:56:52.719Z,0.28
2022-07-27T09:01:55.073Z,0.32
2022-07-27T09:06:57.415Z,0.50
2022-07-27T09:12:08.330Z,0.65
2022-07-27T09:22:48.190Z,0.20
2022-07-27T09:27:56.302Z,0.30
2022-07-27T09:33:03.865Z,0.20
2022-07-27T09:38:23.295Z,0.17
2022-07-27T09:48:48.456Z,0.20
2022-07-27T09:53:54.732Z,0.40
2022-07-27T09:58:59.530Z,0.60
2022-07-27T10:04:06.354Z,0.30
2022-07-27T10:09:08.901Z,0.25
2022-07-27T10:14:14.801Z,0.40
2022-07-27T10:19:34.481Z,0.20
2022-07-27T10:24:37.294Z,0.30
2022-07-27T10:29:39.758Z,0.38
2022-07-27T10:34:43.338Z,0.40
2022-07-27T10:39:50.793Z,0.70
2022-07-27T10:45:04.059Z,0.30
2022-07-27T10:50:15.590Z,0.40
2022-07-27T10:55:30.343Z,0.35
2022-07-27T11:00:54.947Z,0.40
2022-07-27T11:06:18.276Z,0.20
2022-07-27T11:11:25.848Z,0.28
2022-07-27T11:16:29.561Z,0.47
2022-07-27T11:21:37.213Z,0.30
2022-07-27T11:26:42.422Z,0.50
2022-07-27T11:31:55.765Z,0.40
2022-07-27T11:37:02.837Z,0.22
2022-07-27T11:42:08.420Z,0.30
2022-07-27T11:47:18.110Z,0.50
2022-07-27T11:52:20.464Z,0.30
2022-07-27T11:57:31.087Z,0.30
2022-07-27T12:02:33.557Z,0.50
2022-07-27T12:07:36.899Z,0.50
2022-07-27T12:12:39.102Z,0.50
2022-07-27T12:17:43.133Z,0.43
2022-07-27T12:22:50.858Z,0.60
2022-07-27T12:27:52.988Z,0.32
2022-07-27T12:32:55.698Z,0.32
2022-07-27T12:38:03.979Z,0.70
2022-07-27T12:44:15.667Z,0.45
2022-07-27T12:53:24.704Z,0.70
2022-07-27T12:58:27.643Z,0.57
2022-07-27T13:08:11.574Z,0.50
2022-07-27T13:13:15.171Z,0.20
2022-07-27T13:18:22.906Z,1.05
2022-07-27T13:23:26.141Z,0.57
2022-07-27T13:28:28.466Z,0.32
2022-07-27T13:33:30.904Z,0.52
2022-07-27T13:38:33.500Z,0.80
2022-07-27T13:43:35.875Z,0.50
2022-07-27T13:48:38.199Z,0.40
2022-07-27T13:53:40.651Z,0.50
2022-07-27T13:58:44.060Z,0.50
2022-07-27T14:03:46.460Z,0.30
2022-07-27T14:08:48.785Z,0.30
2022-07-27T14:13:51.281Z,0.20
2022-07-27T14:18:53.605Z,0.63
2022-07-27T14:23:55.892Z,0.30
2022-07-27T14:28:59.810Z,0.30
2022-07-27T14:34:02.182Z,0.30
2022-07-27T14:39:04.608Z,0.25
2022-07-27T14:44:07.660Z,0.30
2022-07-27T14:49:09.960Z,0.68
2022-07-27T14:54:12.424Z,0.30
2022-07-27T14:59:15.270Z,0.40
2022-07-27T15:04:17.736Z,0.70
2022-07-27T15:09:20.314Z,0.45
2022-07-27T15:14:24.293Z,0.35
2022-07-27T15:19:26.646Z,0.50
2022-07-27T15:24:29.059Z,0.43
2022-07-27T15:29:31.433Z,0.57
2022-07-27T15:34:33.768Z,0.70
2022-07-27T15:39:40.630Z,0.50
2022-07-27T15:44:43.199Z,0.28
2022-07-27T15:49:45.777Z,0.50
2022-07-27T15:54:48.225Z,0.30
2022-07-27T15:59:50.530Z,0.40
2022-07-27T16:04:53.947Z,0.63
2022-07-27T16:09:56.300Z,0.82
2022-07-27T16:14:58.614Z,0.40
2022-07-27T16:20:00.942Z,0.40
2022-07-27T16:25:04.106Z,0.60
2022-07-27T16:30:06.935Z,0.40
2022-07-27T16:35:10.604Z,0.63
2022-07-27T16:40:12.996Z,0.80
2022-07-27T16:45:15.841Z,0.40
2022-07-27T16:50:18.763Z,0.95
2022-07-27T16:55:21.283Z,0.70
2022-07-27T17:00:27.243Z,1.23
2022-07-27T17:05:29.541Z,0.40
2022-07-27T17:10:32.419Z,1.17
2022-07-27T17:15:35.935Z,0.65
2022-07-27T17:20:40.211Z,1.83
2022-07-27T17:25:42.471Z,2.20
2022-07-27T17:30:45.025Z,1.88
2022-07-27T17:35:47.316Z,0.40
2022-07-27T17:40:49.550Z,0.57
2022-07-27T17:45:51.994Z,0.73
2022-07-27T17:50:54.323Z,1.38
2022-07-27T17:55:56.751Z,0.50
2022-07-27T18:00:59.211Z,0.50
2022-07-27T18:06:02.161Z,0.40
2022-07-27T18:11:04.614Z,0.30
2022-07-27T18:16:11.953Z,1.10
2022-07-27T18:21:15.731Z,0.52
2022-07-27T18:26:18.622Z,0.35
2022-07-27T18:31:22.138Z,0.22
2022-07-27T18:36:25.324Z,0.32
2022-07-27T18:41:28.295Z,0.40
2022-07-27T18:46:30.956Z,0.40
2022-07-27T18:51:33.499Z,0.65
2022-07-27T18:56:37.889Z,0.63
2022-07-27T19:01:41.305Z,0.73
2022-07-27T19:06:44.598Z,0.68
2022-07-27T19:11:48.715Z,0.45
2022-07-27T19:16:51.704Z,0.60
2022-07-27T19:21:54.031Z,0.35
2022-07-27T19:26:56.339Z,0.50
2022-07-27T19:31:58.677Z,0.73
2022-07-27T19:37:01.265Z,0.52
2022-07-27T19:42:03.601Z,0.50
2022-07-27T19:47:07.504Z,0.88
2022-07-27T19:52:10.030Z,0.60
2022-07-27T19:57:12.410Z,1.13
2022-07-27T20:02:16.547Z,0.75
2022-07-27T20:07:18.891Z,0.35
2022-07-27T20:12:21.520Z,0.80
2022-07-27T20:17:23.920Z,0.50
2022-07-27T20:22:26.160Z,0.63
2022-07-27T20:27:28.508Z,0.50
2022-07-27T20:32:30.790Z,0.80
2022-07-27T20:37:33.221Z,0.77
2022-07-27T20:42:35.436Z,0.60
2022-07-27T20:47:43.046Z,0.63
2022-07-27T20:52:45.366Z,0.57
2022-07-27T20:57:48.206Z,0.80
2022-07-27T21:02:50.652Z,0.45
2022-07-27T21:07:54.557Z,0.60
2022-07-27T21:12:57.014Z,0.70
2022-07-27T21:17:59.263Z,0.68
2022-07-27T21:23:19.918Z,0.65
2022-07-27T21:28:24.700Z,0.65
2022-07-27T21:33:27.393Z,0.63
2022-07-27T21:38:29.635Z,0.80
2022-07-27T21:43:32.594Z,0.50
2022-07-27T21:48:34.948Z,0.73
2022-07-27T21:53:37.345Z,0.60
2022-07-27T21:58:40.013Z,0.77
2022-07-27T22:03:43.247Z,0.70
2022-07-27T22:08:46.210Z,0.70
2022-07-27T22:13:48.613Z,0.30
2022-07-27T22:18:50.947Z,0.52
2022-07-27T22:23:53.126Z,0.63
2022-07-27T22:28:55.325Z,0.60
2022-07-27T22:33:57.515Z,0.50
2022-07-27T22:38:59.760Z,0.30
2022-07-27T22:44:01.990Z,0.20
2022-07-27T22:49:04.551Z,0.53
2022-07-27T22:54:06.843Z,0.50
2022-07-27T22:59:09.115Z,0.40
2022-07-27T23:04:11.586Z,0.43
2022-07-27T23:09:14.807Z,0.38
2022-07-27T23:14:17.635Z,0.60
2022-07-27T23:19:20.213Z,0.40
2022-07-27T23:24:29.317Z,0.40
2022-07-27T23:29:31.764Z,0.50
2022-07-27T23:34:35.520Z,0.40
2022-07-27T23:39:37.719Z,0.50
2022-07-27T23:44:40.036Z,0.80
2022-07-27T23:49:42.402Z,0.70
2022-07-27T23:54:44.677Z,0.40
2022-07-27T23:59:46.887Z,0.40
